createdAt,value
2018-09-21T00:01:53.211Z,9.90
2018-09-21T00:04:21.340Z,9.10
2018-09-21T00:06:49.534Z,8.97
2018-09-21T00:09:17.715Z,8.57
2018-09-21T00:11:45.883Z,8.10
2018-09-21T00:14:14.121Z,9.43
2018-09-21T00:16:42.257Z,9.67
2018-09-21T00:19:10.460Z,8.50
2018-09-21T00:21:38.637Z,7.90
2018-09-21T00:24:06.784Z,9.00
2018-09-21T00:26:34.928Z,8.60
2018-09-21T00:29:03.106Z,8.70
2018-09-21T00:31:31.271Z,8.30
2018-09-21T00:33:59.444Z,8.63
2018-09-21T00:36:27.581Z,8.70
2018-09-21T00:38:55.667Z,8.30
2018-09-21T00:41:23.803Z,8.57
2018-09-21T00:43:51.980Z,8.03
2018-09-21T00:46:20.253Z,7.73
2018-09-21T00:48:48.383Z,8.57
2018-09-21T00:51:16.514Z,8.90
2018-09-21T00:53:44.648Z,8.33
2018-09-21T00:56:12.847Z,8.33
2018-09-21T00:58:40.996Z,8.60
2018-09-21T01:01:09.115Z,7.73
2018-09-21T01:03:37.282Z,8.70
2018-09-21T01:06:05.438Z,7.57
2018-09-21T01:08:33.680Z,8.90
2018-09-21T01:11:01.828Z,8.53
2018-09-21T01:13:30.024Z,8.00
2018-09-21T01:15:58.220Z,8.77
2018-09-21T01:18:26.866Z,8.97
2018-09-21T01:20:55.062Z,8.60
2018-09-21T01:23:23.234Z,8.50
2018-09-21T01:25:51.747Z,9.10
2018-09-21T01:28:19.966Z,7.20
2018-09-21T01:30:48.208Z,8.30
2018-09-21T01:33:16.382Z,7.40
2018-09-21T01:35:44.599Z,8.03
2018-09-21T01:38:12.808Z,7.97
2018-09-21T01:40:41.271Z,8.57
2018-09-21T01:43:10.374Z,8.93
2018-09-21T01:45:44.132Z,8.30
2018-09-21T01:48:12.367Z,7.97
2018-09-21T01:50:48.423Z,8.93
2018-09-21T01:53:16.700Z,8.87
2018-09-21T01:55:44.853Z,8.67
2018-09-21T01:58:13.613Z,8.00
2018-09-21T02:00:41.793Z,9.13
2018-09-21T02:03:09.988Z,8.00
2018-09-21T02:05:39.012Z,8.17
2018-09-21T02:08:07.156Z,8.90
2018-09-21T02:10:35.350Z,7.60
2018-09-21T02:13:04.747Z,8.30
2018-09-21T02:15:32.902Z,7.97
2018-09-21T02:18:01.130Z,7.63
2018-09-21T02:20:30.982Z,7.70
2018-09-21T02:22:59.392Z,8.10
2018-09-21T02:25:27.549Z,7.77
2018-09-21T02:27:55.796Z,7.70
2018-09-21T02:30:23.963Z,7.80
2018-09-21T02:32:52.085Z,7.47
2018-09-21T02:35:20.342Z,7.50
2018-09-21T02:37:48.515Z,7.43
2018-09-21T02:40:16.713Z,9.10
2018-09-21T02:42:47.064Z,8.27
2018-09-21T02:45:15.254Z,7.57
2018-09-21T02:47:44.251Z,7.77
2018-09-21T02:50:13.036Z,8.10
2018-09-21T02:52:41.589Z,8.03
2018-09-21T02:55:09.737Z,7.53
2018-09-21T02:57:37.936Z,7.60
2018-09-21T03:00:06.694Z,7.57
2018-09-21T03:02:38.283Z,7.10
2018-09-21T03:05:06.505Z,8.03
2018-09-21T03:07:35.777Z,9.03
2018-09-21T03:10:04.770Z,7.23
2018-09-21T03:12:33.040Z,7.57
2018-09-21T03:15:01.192Z,7.23
2018-09-21T03:17:29.337Z,8.20
2018-09-21T03:19:57.474Z,7.40
2018-09-21T03:22:25.696Z,7.43
2018-09-21T03:24:53.888Z,7.93
2018-09-21T03:27:23.841Z,7.60
2018-09-21T03:29:52.070Z,8.23
2018-09-21T03:32:21.639Z,7.43
2018-09-21T03:34:49.803Z,7.70
2018-09-21T03:37:17.941Z,7.77
2018-09-21T03:39:46.147Z,8.33
2018-09-21T03:42:14.367Z,8.13
2018-09-21T03:44:42.562Z,7.93
2018-09-21T03:47:10.735Z,7.77
2018-09-21T03:49:38.873Z,7.93
2018-09-21T03:52:07.108Z,7.83
2018-09-21T03:54:35.268Z,8.40
2018-09-21T03:57:03.399Z,7.97
2018-09-21T03:59:31.604Z,8.00
2018-09-21T04:02:00.941Z,8.00
2018-09-21T04:04:29.080Z,7.90
2018-09-21T04:06:57.322Z,8.80
2018-09-21T04:09:25.499Z,8.00
2018-09-21T04:11:53.646Z,8.63
2018-09-21T04:14:22.356Z,8.80
2018-09-21T04:16:50.570Z,8.00
2018-09-21T04:19:18.740Z,8.20
2018-09-21T04:21:46.916Z,9.47
2018-09-21T04:24:15.808Z,8.83
2018-09-21T04:26:44.118Z,8.80
2018-09-21T04:29:13.034Z,8.33
2018-09-21T04:31:42.240Z,8.70
2018-09-21T04:34:10.552Z,8.40
2018-09-21T04:36:38.726Z,8.57
2018-09-21T04:39:08.985Z,7.80
2018-09-21T04:41:37.390Z,9.37
2018-09-21T04:44:05.603Z,8.77
2018-09-21T04:46:46.960Z,7.90
2018-09-21T04:49:15.884Z,9.30
2018-09-21T04:51:44.092Z,8.70
2018-09-21T04:54:12.269Z,9.93
2018-09-21T04:56:40.479Z,10.10
2018-09-21T04:59:08.681Z,9.37
2018-09-21T05:01:36.954Z,8.10
2018-09-21T05:04:05.124Z,8.87
2018-09-21T05:06:33.675Z,8.90
2018-09-21T05:09:05.521Z,10.10
2018-09-21T05:11:33.708Z,9.37
2018-09-21T05:14:01.870Z,10.27
2018-09-21T05:16:30.988Z,8.60
2018-09-21T05:18:59.216Z,9.13
2018-09-21T05:21:27.332Z,9.87
2018-09-21T05:23:55.519Z,8.67
2018-09-21T05:26:23.646Z,8.60
2018-09-21T05:28:51.887Z,8.70
2018-09-21T05:31:20.100Z,8.67
2018-09-21T05:33:48.293Z,9.47
2018-09-21T05:36:16.536Z,8.13
2018-09-21T05:38:44.662Z,8.60
2018-09-21T05:41:12.832Z,8.57
2018-09-21T05:43:41.120Z,8.97
2018-09-21T05:46:09.848Z,7.83
2018-09-21T05:48:38.074Z,7.87
2018-09-21T05:51:06.810Z,7.70
2018-09-21T05:53:34.974Z,8.53
2018-09-21T05:56:03.146Z,8.30
2018-09-21T05:58:31.364Z,8.70
2018-09-21T06:00:59.552Z,8.17
2018-09-21T06:03:27.734Z,7.23
2018-09-21T06:05:55.934Z,7.83
2018-09-21T06:08:24.103Z,7.03
2018-09-21T06:10:52.394Z,7.27
2018-09-21T06:13:20.604Z,7.23
2018-09-21T06:15:48.760Z,7.17
2018-09-21T06:18:17.898Z,7.03
2018-09-21T06:20:46.030Z,7.30
2018-09-21T06:23:14.188Z,6.87
2018-09-21T06:25:42.352Z,7.33
2018-09-21T06:28:11.073Z,6.40
2018-09-21T06:30:39.522Z,6.87
2018-09-21T06:33:07.686Z,6.80
2018-09-21T06:35:35.854Z,6.90
2018-09-21T06:38:04.010Z,7.30
2018-09-21T06:40:32.142Z,7.10
2018-09-21T06:43:00.304Z,7.73
2018-09-21T06:45:28.459Z,6.90
2018-09-21T06:47:56.679Z,6.93
2018-09-21T06:50:24.817Z,6.53
2018-09-21T06:52:53.068Z,7.30
2018-09-21T06:55:21.274Z,6.23
2018-09-21T06:57:50.095Z,7.87
2018-09-21T07:00:18.296Z,6.70
2018-09-21T07:02:46.468Z,6.80
2018-09-21T07:05:15.922Z,6.77
2018-09-21T07:07:44.404Z,7.27
2018-09-21T07:10:13.076Z,5.93
2018-09-21T07:12:41.864Z,6.50
2018-09-21T07:15:10.346Z,6.07
2018-09-21T07:17:38.749Z,6.77
2018-09-21T07:20:07.014Z,7.50
2018-09-21T07:22:35.514Z,6.47
2018-09-21T07:25:04.018Z,6.30
2018-09-21T07:27:32.353Z,6.60
2018-09-21T07:30:00.474Z,6.40
2018-09-21T07:32:28.706Z,8.03
2018-09-21T07:34:57.035Z,5.80
2018-09-21T07:37:25.374Z,6.93
2018-09-21T07:39:53.486Z,6.87
2018-09-21T07:42:22.512Z,6.83
2018-09-21T07:44:50.684Z,6.30
2018-09-21T07:47:19.748Z,5.80
2018-09-21T07:49:48.429Z,6.80
2018-09-21T07:52:16.620Z,5.47
2018-09-21T07:54:46.032Z,6.07
2018-09-21T07:57:14.153Z,5.83
2018-09-21T07:59:42.347Z,6.33
2018-09-21T08:02:10.543Z,6.47
2018-09-21T08:04:39.358Z,5.90
2018-09-21T08:07:07.759Z,5.50
2018-09-21T08:09:36.011Z,5.33
2018-09-21T08:12:04.597Z,6.83
2018-09-21T08:14:32.776Z,7.67
2018-09-21T08:17:00.954Z,5.77
2018-09-21T08:19:29.169Z,4.90
2018-09-21T08:21:57.417Z,6.93
2018-09-21T08:24:25.575Z,4.67
2018-09-21T08:26:53.885Z,4.87
2018-09-21T08:29:22.139Z,4.73
2018-09-21T08:31:50.304Z,4.80
2018-09-21T08:34:18.713Z,6.63
2018-09-21T08:36:48.178Z,5.80
2018-09-21T08:39:16.929Z,5.17
2018-09-21T08:41:45.391Z,5.10
2018-09-21T08:44:13.641Z,5.70
2018-09-21T08:46:41.848Z,4.60
2018-09-21T08:49:10.037Z,5.33
2018-09-21T08:51:38.257Z,4.80
2018-09-21T08:54:06.699Z,5.00
2018-09-21T08:56:34.945Z,4.60
2018-09-21T08:59:03.114Z,5.10
2018-09-21T09:01:31.464Z,4.70
2018-09-21T09:04:00.804Z,5.17
2018-09-21T09:06:30.003Z,5.17
2018-09-21T09:08:58.239Z,4.83
2018-09-21T09:11:26.415Z,5.43
2018-09-21T09:13:54.545Z,6.10
2018-09-21T09:16:22.798Z,5.90
2018-09-21T09:18:52.063Z,4.67
2018-09-21T09:21:20.214Z,5.43
2018-09-21T09:23:48.406Z,4.63
2018-09-21T09:26:16.601Z,5.17
2018-09-21T09:28:44.801Z,4.70
2018-09-21T09:31:12.970Z,4.57
2018-09-21T09:33:41.190Z,4.50
2018-09-21T09:36:09.410Z,4.77
2018-09-21T09:38:37.832Z,4.90
2018-09-21T09:41:06.056Z,5.47
2018-09-21T09:43:34.241Z,5.07
2018-09-21T09:46:02.470Z,4.80
2018-09-21T09:48:30.733Z,5.03
2018-09-21T09:50:58.966Z,4.70
2018-09-21T09:53:27.234Z,4.50
2018-09-21T09:55:55.386Z,4.40
2018-09-21T09:58:23.592Z,4.50
2018-09-21T10:00:52.403Z,4.23
2018-09-21T10:03:22.386Z,6.10
2018-09-21T10:05:50.846Z,5.70
2018-09-21T10:08:19.166Z,5.20
2018-09-21T10:10:47.368Z,3.90
2018-09-21T10:13:15.506Z,4.50
2018-09-21T10:15:43.727Z,3.97
2018-09-21T10:18:12.008Z,5.13
2018-09-21T10:20:40.232Z,4.20
2018-09-21T10:23:08.682Z,4.60
2018-09-21T10:25:36.845Z,4.43
2018-09-21T10:28:05.301Z,4.60
2018-09-21T10:30:33.869Z,4.23
2018-09-21T10:33:02.209Z,4.20
2018-09-21T10:35:30.419Z,4.50
2018-09-21T10:37:58.524Z,5.13
2018-09-21T10:40:27.776Z,4.37
2018-09-21T10:42:56.042Z,3.97
2018-09-21T10:45:24.218Z,4.00
2018-09-21T10:47:53.242Z,5.53
2018-09-21T10:50:23.358Z,4.93
2018-09-21T10:52:51.632Z,4.40
2018-09-21T10:55:19.742Z,4.90
2018-09-21T10:57:47.904Z,4.30
2018-09-21T11:00:16.708Z,4.33
2018-09-21T11:02:44.847Z,4.30
2018-09-21T11:05:13.041Z,4.43
2018-09-21T11:07:41.290Z,5.43
2018-09-21T11:10:09.667Z,4.60
2018-09-21T11:12:37.954Z,4.90
2018-09-21T11:15:07.284Z,4.50
2018-09-21T11:17:36.609Z,6.07
2018-09-21T11:20:04.923Z,4.90
2018-09-21T11:22:33.062Z,4.63
2018-09-21T11:25:01.280Z,4.37
2018-09-21T11:27:29.382Z,6.67
2018-09-21T11:29:57.650Z,4.60
2018-09-21T11:32:25.785Z,4.43
2018-09-21T11:34:54.607Z,3.53
2018-09-21T11:37:22.809Z,4.30
2018-09-21T11:39:51.008Z,4.30
2018-09-21T11:42:19.229Z,3.73
2018-09-21T11:44:47.492Z,4.70
2018-09-21T11:47:15.738Z,4.23
2018-09-21T11:49:43.785Z,4.53
2018-09-21T11:52:12.034Z,4.10
2018-09-21T11:54:40.286Z,4.40
2018-09-21T11:57:08.408Z,4.40
2018-09-21T11:59:43.281Z,4.97
2018-09-21T12:02:11.500Z,4.03
2018-09-21T12:04:40.318Z,4.27
2018-09-21T12:07:08.486Z,5.13
2018-09-21T12:09:36.636Z,5.00
2018-09-21T12:12:04.840Z,8.23
2018-09-21T12:14:32.985Z,4.43
2018-09-21T12:17:01.228Z,6.00
2018-09-21T12:19:29.452Z,4.70
2018-09-21T12:21:57.708Z,4.10
2018-09-21T12:24:25.878Z,5.37
2018-09-21T12:26:54.053Z,4.80
2018-09-21T12:29:22.336Z,3.50
2018-09-21T12:31:50.529Z,4.30
2018-09-21T12:34:19.309Z,4.20
2018-09-21T12:36:47.446Z,3.90
2018-09-21T12:39:15.686Z,3.90
2018-09-21T12:41:45.918Z,6.60
2018-09-21T12:44:15.667Z,3.60
2018-09-21T12:46:43.852Z,4.60
2018-09-21T12:49:12.109Z,4.63
2018-09-21T12:51:40.291Z,4.67
2018-09-21T12:54:08.490Z,5.80
2018-09-21T12:56:36.731Z,3.90
2018-09-21T12:59:04.913Z,4.00
2018-09-21T13:01:33.111Z,4.77
2018-09-21T13:04:01.675Z,3.77
2018-09-21T13:06:29.951Z,4.80
2018-09-21T13:08:58.079Z,4.10
2018-09-21T13:11:26.234Z,5.70
2018-09-21T13:13:54.466Z,5.43
2018-09-21T13:16:22.717Z,4.60
2018-09-21T13:18:50.964Z,5.23
2018-09-21T13:21:19.131Z,4.03
2018-09-21T13:23:47.346Z,4.77
2018-09-21T13:26:15.584Z,6.47
2018-09-21T13:28:43.805Z,4.37
2018-09-21T13:31:11.934Z,4.30
2018-09-21T13:33:40.864Z,4.40
2018-09-21T13:36:09.034Z,4.50
2018-09-21T13:38:37.206Z,4.43
2018-09-21T13:41:05.495Z,4.33
2018-09-21T13:43:34.058Z,4.80
2018-09-21T13:46:02.264Z,4.30
2018-09-21T13:48:30.426Z,3.80
2018-09-21T13:50:58.684Z,4.00
2018-09-21T13:53:26.900Z,4.43
2018-09-21T13:55:55.136Z,4.40
2018-09-21T13:58:23.388Z,4.70
2018-09-21T14:00:51.624Z,6.00
2018-09-21T14:03:19.940Z,4.40
2018-09-21T14:05:49.421Z,4.17
2018-09-21T14:08:17.668Z,4.97
2018-09-21T14:10:45.934Z,5.47
2018-09-21T14:13:14.132Z,4.93
2018-09-21T14:15:42.440Z,4.47
2018-09-21T14:18:10.612Z,5.17
2018-09-21T14:20:38.800Z,4.97
2018-09-21T14:23:06.997Z,5.40
2018-09-21T14:25:37.228Z,4.27
2018-09-21T14:28:05.510Z,4.53
2018-09-21T14:30:33.857Z,5.10
2018-09-21T14:33:02.003Z,3.97
2018-09-21T14:35:30.212Z,4.67
2018-09-21T14:37:58.379Z,4.60
2018-09-21T14:40:26.991Z,4.40
2018-09-21T14:42:56.921Z,4.60
2018-09-21T14:45:27.507Z,5.73
2018-09-21T14:47:55.860Z,5.93
2018-09-21T14:50:24.029Z,6.00
2018-09-21T14:52:52.275Z,6.87
2018-09-21T14:55:20.409Z,3.50
2018-09-21T14:57:48.632Z,2.67
2018-09-21T15:00:17.682Z,1.83
2018-09-21T15:02:45.890Z,2.33
2018-09-21T15:05:14.185Z,2.17
2018-09-21T15:07:42.454Z,2.00
2018-09-21T15:10:10.630Z,2.00
2018-09-21T15:12:38.782Z,1.77
2018-09-21T15:15:07.262Z,1.60
2018-09-21T15:17:35.380Z,1.47
2018-09-21T15:20:03.618Z,1.20
2018-09-21T15:22:32.212Z,1.00
2018-09-21T15:25:01.110Z,1.10
2018-09-21T15:27:29.254Z,0.90
2018-09-21T15:29:57.400Z,1.43
2018-09-21T15:32:25.616Z,0.87
2018-09-21T15:34:53.774Z,1.60
2018-09-21T15:37:22.037Z,1.03
2018-09-21T15:39:50.185Z,0.77
2018-09-21T15:42:18.316Z,1.63
2018-09-21T15:44:48.190Z,1.43
2018-09-21T15:47:16.381Z,0.93
2018-09-21T15:49:44.587Z,2.00
2018-09-21T15:52:12.738Z,1.10
2018-09-21T15:54:40.928Z,0.83
2018-09-21T15:57:09.074Z,1.93
2018-09-21T15:59:37.278Z,0.83
2018-09-21T16:02:05.434Z,1.27
2018-09-21T16:04:34.364Z,1.17
2018-09-21T16:07:04.443Z,0.90
2018-09-21T16:09:32.633Z,1.17
2018-09-21T16:12:00.944Z,1.30
2018-09-21T16:14:31.682Z,1.00
2018-09-21T16:16:59.870Z,1.73
2018-09-21T16:19:28.042Z,2.60
2018-09-21T16:21:56.224Z,1.10
2018-09-21T16:24:26.069Z,1.20
2018-09-21T16:26:56.825Z,1.40
2018-09-21T16:29:26.247Z,1.00
2018-09-21T16:31:54.447Z,1.80
2018-09-21T16:34:22.749Z,1.90
2018-09-21T16:36:50.995Z,1.03
2018-09-21T16:39:19.251Z,1.30
2018-09-21T16:41:48.026Z,1.50
2018-09-21T16:44:16.266Z,1.00
2018-09-21T16:46:44.448Z,2.17
2018-09-21T16:49:12.807Z,1.17
2018-09-21T16:51:42.674Z,1.77
2018-09-21T16:54:12.577Z,1.30
2018-09-21T16:56:40.874Z,1.70
2018-09-21T16:59:09.086Z,1.33
2018-09-21T17:01:37.273Z,1.60
2018-09-21T17:04:06.432Z,1.10
2018-09-21T17:06:35.397Z,1.23
2018-09-21T17:09:03.818Z,2.97
2018-09-21T17:11:31.980Z,1.10
2018-09-21T17:14:00.268Z,1.27
2018-09-21T17:16:28.491Z,1.47
2018-09-21T17:18:56.704Z,1.50
2018-09-21T17:21:25.625Z,1.63
2018-09-21T17:23:54.896Z,1.70
2018-09-21T17:26:23.280Z,1.30
2018-09-21T17:28:51.424Z,1.30
2018-09-21T17:31:20.588Z,2.00
2018-09-21T17:33:49.579Z,1.63
2018-09-21T17:36:17.782Z,2.00
2018-09-21T17:38:46.544Z,2.40
2018-09-21T17:41:14.752Z,2.27
2018-09-21T17:43:42.941Z,2.00
2018-09-21T17:46:11.196Z,2.00
2018-09-21T17:48:39.403Z,2.20
2018-09-21T17:51:08.491Z,2.30
2018-09-21T17:53:36.895Z,1.83
2018-09-21T17:56:05.117Z,2.00
2018-09-21T17:58:33.313Z,1.60
2018-09-21T18:01:01.595Z,2.53
2018-09-21T18:03:29.852Z,1.93
2018-09-21T18:06:19.763Z,3.20
2018-09-21T18:08:49.447Z,2.40
2018-09-21T18:11:17.680Z,3.00
2018-09-21T18:13:45.899Z,3.30
2018-09-21T18:16:14.220Z,2.60
2018-09-21T18:18:42.360Z,3.50
2018-09-21T18:21:10.604Z,3.10
2018-09-21T18:23:39.910Z,2.50
2018-09-21T18:26:09.234Z,3.03
2018-09-21T18:28:37.554Z,2.67
2018-09-21T18:31:05.852Z,2.40
2018-09-21T18:33:34.151Z,2.00
2018-09-21T18:36:04.720Z,1.90
2018-09-21T18:38:32.992Z,2.20
2018-09-21T18:41:01.207Z,2.93
2018-09-21T18:43:29.466Z,2.80
2018-09-21T18:45:58.432Z,3.00
2018-09-21T18:51:09.314Z,3.17
2018-09-21T18:53:38.180Z,3.37
2018-09-21T18:56:06.402Z,3.40
2018-09-21T18:58:35.777Z,3.30
2018-09-21T19:01:05.078Z,3.03
2018-09-21T19:03:33.249Z,3.43
2018-09-21T19:06:01.470Z,3.33
2018-09-21T19:08:29.709Z,3.50
2018-09-21T19:10:58.049Z,3.03
2018-09-21T19:13:28.518Z,4.00
2018-09-21T19:15:57.920Z,4.03
2018-09-21T19:18:26.160Z,3.53
2018-09-21T19:20:54.426Z,3.37
2018-09-21T19:23:23.317Z,3.67
2018-09-21T19:25:52.518Z,3.10
2018-09-21T19:28:21.031Z,3.07
2018-09-21T19:30:49.270Z,3.10
2018-09-21T19:33:17.533Z,2.90
2018-09-21T19:35:45.936Z,4.17
2018-09-21T19:38:15.182Z,4.40
2018-09-21T19:40:50.377Z,3.40
2018-09-21T19:43:18.698Z,3.43
2018-09-21T19:45:47.162Z,3.80
2018-09-21T19:48:15.541Z,3.80
2018-09-21T19:50:43.678Z,3.13
2018-09-21T19:53:11.945Z,2.37
2018-09-21T19:55:41.626Z,2.53
2018-09-21T19:58:14.965Z,3.43
2018-09-21T20:00:43.384Z,3.60
2018-09-21T20:03:13.588Z,2.90
2018-09-21T20:05:41.778Z,2.37
2018-09-21T20:08:10.660Z,3.40
2018-09-21T20:10:39.657Z,3.83
2018-09-21T20:13:07.863Z,3.50
2018-09-21T20:15:47.268Z,3.97
2018-09-21T20:18:21.228Z,3.53
2018-09-21T20:20:49.488Z,3.60
2018-09-21T20:23:18.848Z,3.63
2018-09-21T20:25:46.995Z,2.93
2018-09-21T20:28:15.190Z,2.70
2018-09-21T20:30:53.102Z,3.17
2018-09-21T20:33:27.637Z,3.10
2018-09-21T20:35:56.267Z,2.83
2018-09-21T20:38:24.475Z,2.60
2018-09-21T20:40:52.641Z,3.33
2018-09-21T20:43:24.894Z,4.20
2018-09-21T20:45:53.533Z,3.70
2018-09-21T20:48:23.701Z,2.93
2018-09-21T20:50:52.126Z,3.37
2018-09-21T20:53:20.646Z,3.43
2018-09-21T20:55:48.803Z,2.87
2018-09-21T20:58:17.010Z,2.87
2018-09-21T21:00:45.184Z,2.67
2018-09-21T21:03:14.546Z,2.63
2018-09-21T21:05:42.684Z,2.53
2018-09-21T21:08:10.885Z,3.07
2018-09-21T21:10:41.364Z,2.70
2018-09-21T21:13:10.583Z,3.30
2018-09-21T21:15:39.522Z,3.30
2018-09-21T21:18:08.786Z,2.90
2018-09-21T21:20:37.013Z,2.80
2018-09-21T21:23:05.689Z,2.40
2018-09-21T21:25:34.120Z,2.60
2018-09-21T21:28:02.300Z,2.80
2018-09-21T21:30:30.449Z,3.20
2018-09-21T21:32:58.570Z,3.17
2018-09-21T21:35:26.718Z,2.70
2018-09-21T21:37:56.660Z,2.27
2018-09-21T21:40:24.927Z,2.30
2018-09-21T21:42:53.039Z,1.47
2018-09-21T21:45:21.182Z,1.93
2018-09-21T21:47:49.304Z,1.70
2018-09-21T21:50:18.357Z,1.50
2018-09-21T21:52:47.115Z,2.03
2018-09-21T21:55:15.276Z,1.40
2018-09-21T21:57:43.983Z,2.33
2018-09-21T22:00:14.935Z,1.93
2018-09-21T22:02:43.801Z,2.50
2018-09-21T22:05:12.073Z,1.83
2018-09-21T22:07:40.302Z,1.00
2018-09-21T22:10:08.936Z,1.50
2018-09-21T22:12:43.307Z,1.20
2018-09-21T22:15:13.881Z,1.10
2018-09-21T22:17:43.371Z,1.20
2018-09-21T22:20:12.269Z,1.23
2018-09-21T22:22:40.485Z,1.40
2018-09-21T22:25:09.253Z,1.90
2018-09-21T22:27:37.425Z,2.07
2018-09-21T22:30:05.875Z,1.70
2018-09-21T22:32:34.031Z,1.20
2018-09-21T22:35:03.131Z,1.60
2018-09-21T22:37:31.325Z,1.70
2018-09-21T22:39:59.544Z,1.30
2018-09-21T22:42:27.787Z,1.67
2018-09-21T22:44:57.302Z,2.33
2018-09-21T22:47:26.507Z,1.93
2018-09-21T22:49:57.375Z,1.67
2018-09-21T22:52:25.679Z,2.00
2018-09-21T22:54:53.865Z,2.00
2018-09-21T22:57:22.199Z,1.60
2018-09-21T22:59:50.767Z,1.40
2018-09-21T23:02:18.924Z,1.70
2018-09-21T23:04:47.105Z,1.97
2018-09-21T23:07:15.272Z,1.87
2018-09-21T23:09:44.336Z,1.50
2018-09-21T23:12:12.545Z,1.83
2018-09-21T23:14:40.762Z,1.50
2018-09-21T23:17:08.995Z,1.47
2018-09-21T23:19:38.400Z,1.60
2018-09-21T23:22:06.587Z,1.37
2018-09-21T23:24:35.059Z,1.00
2018-09-21T23:27:04.542Z,1.50
2018-09-21T23:29:36.297Z,1.67
2018-09-21T23:32:12.147Z,1.40
2018-09-21T23:34:40.781Z,2.23
2018-09-21T23:37:08.987Z,1.53
2018-09-21T23:39:45.253Z,1.43
2018-09-21T23:42:13.431Z,2.00
2018-09-21T23:44:41.613Z,1.20
2018-09-21T23:47:09.843Z,1.33
2018-09-21T23:49:38.085Z,1.03
2018-09-21T23:52:06.429Z,1.60
2018-09-21T23:54:34.637Z,1.37
2018-09-21T23:57:04.116Z,1.53
2018-09-21T23:59:32.389Z,0.70
